sensor_id;sensor_type;location;lat;lon;timestamp;P1;durP1;ratioP1;P2;durP2;ratioP2
3991;SDS011;2010;48.194;16.394;2022-09-09T00:02:10;1.27;;;1.10;;
3991;SDS011;2010;48.194;16.394;2022-09-09T00:04:50;1.53;;;1.10;;
3991;SDS011;2010;48.194;16.394;2022-09-09T00:07:25;1.10;;;1.10;;
3991;SDS011;2010;48.194;16.394;2022-09-09T00:10:06;1.17;;;1.07;;
3991;SDS011;2010;48.194;16.394;2022-09-09T00:12:51;0.93;;;0.83;;
3991;SDS011;2010;48.194;16.394;2022-09-09T00:15:29;1.00;;;0.63;;
3991;SDS011;2010;48.194;16.394;2022-09-09T00:18:01;0.80;;;0.80;;
3991;SDS011;2010;48.194;16.394;2022-09-09T00:20:39;1.63;;;1.00;;
3991;SDS011;2010;48.194;16.394;2022-09-09T00:23:14;1.43;;;1.17;;
3991;SDS011;2010;48.194;16.394;2022-09-09T00:25:49;1.20;;;1.10;;
3991;SDS011;2010;48.194;16.394;2022-09-09T00:28:30;1.20;;;0.90;;
3991;SDS011;2010;48.194;16.394;2022-09-09T00:31:07;1.53;;;0.90;;
3991;SDS011;2010;48.194;16.394;2022-09-09T00:33:42;1.40;;;0.77;;
3991;SDS011;2010;48.194;16.394;2022-09-09T00:36:14;0.90;;;0.90;;
3991;SDS011;2010;48.194;16.394;2022-09-09T00:38:49;1.07;;;1.00;;
3991;SDS011;2010;48.194;16.394;2022-09-09T00:41:22;1.60;;;1.10;;
3991;SDS011;2010;48.194;16.394;2022-09-09T00:44:10;0.97;;;0.97;;
3991;SDS011;2010;48.194;16.394;2022-09-09T00:46:54;2.50;;;1.10;;
3991;SDS011;2010;48.194;16.394;2022-09-09T00:49:32;0.93;;;0.83;;
3991;SDS011;2010;48.194;16.394;2022-09-09T00:52:23;1.00;;;0.90;;
3991;SDS011;2010;48.194;16.394;2022-09-09T00:55:04;1.00;;;1.00;;
3991;SDS011;2010;48.194;16.394;2022-09-09T00:57:36;2.20;;;0.90;;
3991;SDS011;2010;48.194;16.394;2022-09-09T01:02:52;0.83;;;0.70;;
3991;SDS011;2010;48.194;16.394;2022-09-09T01:05:55;1.53;;;0.97;;
3991;SDS011;2010;48.194;16.394;2022-09-09T01:08:39;0.97;;;0.80;;
3991;SDS011;2010;48.194;16.394;2022-09-09T01:11:31;1.00;;;0.80;;
3991;SDS011;2010;48.194;16.394;2022-09-09T01:14:11;0.70;;;0.70;;
3991;SDS011;2010;48.194;16.394;2022-09-09T01:16:48;1.00;;;0.80;;
3991;SDS011;2010;48.194;16.394;2022-09-09T01:19:22;2.60;;;1.07;;
3991;SDS011;2010;48.194;16.394;2022-09-09T01:22:00;0.70;;;0.70;;
3991;SDS011;2010;48.194;16.394;2022-09-09T01:24:35;1.07;;;0.87;;
3991;SDS011;2010;48.194;16.394;2022-09-09T01:27:19;0.87;;;0.60;;
3991;SDS011;2010;48.194;16.394;2022-09-09T01:29:48;0.70;;;0.63;;
3991;SDS011;2010;48.194;16.394;2022-09-09T01:32:38;0.97;;;0.87;;
3991;SDS011;2010;48.194;16.394;2022-09-09T01:35:15;0.80;;;0.80;;
3991;SDS011;2010;48.194;16.394;2022-09-09T01:37:50;0.90;;;0.90;;
3991;SDS011;2010;48.194;16.394;2022-09-09T01:40:19;0.70;;;0.70;;
3991;SDS011;2010;48.194;16.394;2022-09-09T01:42:53;1.50;;;1.10;;
3991;SDS011;2010;48.194;16.394;2022-09-09T01:45:26;1.13;;;0.77;;
3991;SDS011;2010;48.194;16.394;2022-09-09T01:47:54;0.77;;;0.77;;
3991;SDS011;2010;48.194;16.394;2022-09-09T01:50:39;1.33;;;0.83;;
3991;SDS011;2010;48.194;16.394;2022-09-09T01:53:11;0.87;;;0.87;;
3991;SDS011;2010;48.194;16.394;2022-09-09T01:55:41;1.83;;;1.00;;
3991;SDS011;2010;48.194;16.394;2022-09-09T01:58:22;0.77;;;0.77;;
3991;SDS011;2010;48.194;16.394;2022-09-09T02:01:00;0.80;;;0.80;;
3991;SDS011;2010;48.194;16.394;2022-09-09T02:03:33;1.43;;;0.90;;
3991;SDS011;2010;48.194;16.394;2022-09-09T02:06:19;1.23;;;0.80;;
3991;SDS011;2010;48.194;16.394;2022-09-09T02:09:02;0.87;;;0.87;;
3991;SDS011;2010;48.194;16.394;2022-09-09T02:11:33;2.30;;;0.80;;
3991;SDS011;2010;48.194;16.394;2022-09-09T02:14:11;2.13;;;0.60;;
3991;SDS011;2010;48.194;16.394;2022-09-09T02:16:47;0.70;;;0.63;;
3991;SDS011;2010;48.194;16.394;2022-09-09T02:19:26;1.13;;;0.80;;
3991;SDS011;2010;48.194;16.394;2022-09-09T02:22:24;0.87;;;0.70;;
3991;SDS011;2010;48.194;16.394;2022-09-09T02:24:54;0.80;;;0.80;;
3991;SDS011;2010;48.194;16.394;2022-09-09T02:27:28;1.63;;;0.70;;
3991;SDS011;2010;48.194;16.394;2022-09-09T02:29:58;0.83;;;0.73;;
3991;SDS011;2010;48.194;16.394;2022-09-09T02:32:42;1.70;;;0.70;;
3991;SDS011;2010;48.194;16.394;2022-09-09T02:35:15;0.77;;;0.77;;
3991;SDS011;2010;48.194;16.394;2022-09-09T02:37:48;0.90;;;0.90;;
3991;SDS011;2010;48.194;16.394;2022-09-09T02:40:19;2.23;;;0.60;;
3991;SDS011;2010;48.194;16.394;2022-09-09T02:42:57;4.83;;;0.80;;
3991;SDS011;2010;48.194;16.394;2022-09-09T02:45:31;0.83;;;0.83;;
3991;SDS011;2010;48.194;16.394;2022-09-09T02:48:05;0.70;;;0.70;;
3991;SDS011;2010;48.194;16.394;2022-09-09T02:50:39;2.27;;;0.97;;
3991;SDS011;2010;48.194;16.394;2022-09-09T02:53:12;0.70;;;0.70;;
3991;SDS011;2010;48.194;16.394;2022-09-09T02:55:46;0.50;;;0.43;;
3991;SDS011;2010;48.194;16.394;2022-09-09T02:58:23;0.80;;;0.80;;
3991;SDS011;2010;48.194;16.394;2022-09-09T03:01:15;2.30;;;0.70;;
3991;SDS011;2010;48.194;16.394;2022-09-09T03:03:46;0.70;;;0.70;;
3991;SDS011;2010;48.194;16.394;2022-09-09T03:06:17;1.17;;;0.70;;
3991;SDS011;2010;48.194;16.394;2022-09-09T03:08:51;3.27;;;1.00;;
3991;SDS011;2010;48.194;16.394;2022-09-09T03:11:25;1.17;;;0.90;;
3991;SDS011;2010;48.194;16.394;2022-09-09T03:13:58;1.33;;;0.80;;
3991;SDS011;2010;48.194;16.394;2022-09-09T03:16:31;2.20;;;0.80;;
3991;SDS011;2010;48.194;16.394;2022-09-09T03:19:02;0.70;;;0.70;;
3991;SDS011;2010;48.194;16.394;2022-09-09T03:21:31;1.27;;;1.17;;
3991;SDS011;2010;48.194;16.394;2022-09-09T03:24:00;1.80;;;1.20;;
3991;SDS011;2010;48.194;16.394;2022-09-09T03:26:31;1.53;;;0.77;;
3991;SDS011;2010;48.194;16.394;2022-09-09T03:29:00;0.60;;;0.60;;
3991;SDS011;2010;48.194;16.394;2022-09-09T03:31:32;1.03;;;0.60;;
3991;SDS011;2010;48.194;16.394;2022-09-09T03:34:06;1.07;;;0.70;;
3991;SDS011;2010;48.194;16.394;2022-09-09T03:36:36;1.23;;;0.77;;
3991;SDS011;2010;48.194;16.394;2022-09-09T03:39:12;1.10;;;0.67;;
3991;SDS011;2010;48.194;16.394;2022-09-09T03:41:44;0.73;;;0.73;;
3991;SDS011;2010;48.194;16.394;2022-09-09T03:44:15;3.07;;;0.80;;
3991;SDS011;2010;48.194;16.394;2022-09-09T03:46:46;3.27;;;0.90;;
3991;SDS011;2010;48.194;16.394;2022-09-09T03:49:16;0.83;;;0.83;;
3991;SDS011;2010;48.194;16.394;2022-09-09T03:51:48;1.87;;;0.90;;
3991;SDS011;2010;48.194;16.394;2022-09-09T03:54:19;1.37;;;0.80;;
3991;SDS011;2010;48.194;16.394;2022-09-09T03:56:49;7.30;;;1.23;;
3991;SDS011;2010;48.194;16.394;2022-09-09T03:59:52;1.63;;;1.20;;
3991;SDS011;2010;48.194;16.394;2022-09-09T04:02:53;1.40;;;1.30;;
3991;SDS011;2010;48.194;16.394;2022-09-09T04:05:27;1.70;;;1.60;;
3991;SDS011;2010;48.194;16.394;2022-09-09T04:08:16;1.17;;;1.10;;
3991;SDS011;2010;48.194;16.394;2022-09-09T04:11:14;1.83;;;1.60;;
3991;SDS011;2010;48.194;16.394;2022-09-09T04:13:49;3.20;;;1.30;;
3991;SDS011;2010;48.194;16.394;2022-09-09T04:16:36;2.80;;;1.30;;
3991;SDS011;2010;48.194;16.394;2022-09-09T04:19:10;1.40;;;1.30;;
3991;SDS011;2010;48.194;16.394;2022-09-09T04:21:44;2.60;;;1.50;;
3991;SDS011;2010;48.194;16.394;2022-09-09T04:24:14;1.40;;;1.30;;
3991;SDS011;2010;48.194;16.394;2022-09-09T04:27:10;1.93;;;1.27;;
3991;SDS011;2010;48.194;16.394;2022-09-09T04:29:55;2.20;;;1.50;;
3991;SDS011;2010;48.194;16.394;2022-09-09T04:32:32;2.87;;;1.67;;
3991;SDS011;2010;48.194;16.394;2022-09-09T04:35:05;2.73;;;1.97;;
3991;SDS011;2010;48.194;16.394;2022-09-09T04:37:41;1.57;;;1.40;;
3991;SDS011;2010;48.194;16.394;2022-09-09T04:40:13;1.70;;;1.57;;
3991;SDS011;2010;48.194;16.394;2022-09-09T04:42:44;3.43;;;1.70;;
3991;SDS011;2010;48.194;16.394;2022-09-09T04:45:15;1.93;;;1.50;;
3991;SDS011;2010;48.194;16.394;2022-09-09T04:47:46;3.60;;;2.20;;
3991;SDS011;2010;48.194;16.394;2022-09-09T04:50:19;2.50;;;2.00;;
3991;SDS011;2010;48.194;16.394;2022-09-09T04:52:48;3.73;;;3.37;;
3991;SDS011;2010;48.194;16.394;2022-09-09T04:55:17;3.20;;;2.90;;
3991;SDS011;2010;48.194;16.394;2022-09-09T04:57:48;7.57;;;4.03;;
3991;SDS011;2010;48.194;16.394;2022-09-09T05:00:17;3.23;;;2.93;;
3991;SDS011;2010;48.194;16.394;2022-09-09T05:02:46;5.87;;;2.57;;
3991;SDS011;2010;48.194;16.394;2022-09-09T05:05:19;2.30;;;2.03;;
3991;SDS011;2010;48.194;16.394;2022-09-09T05:07:51;8.33;;;3.50;;
3991;SDS011;2010;48.194;16.394;2022-09-09T05:10:23;10.80;;;3.30;;
3991;SDS011;2010;48.194;16.394;2022-09-09T05:12:55;11.87;;;3.27;;
3991;SDS011;2010;48.194;16.394;2022-09-09T05:15:26;6.50;;;2.57;;
3991;SDS011;2010;48.194;16.394;2022-09-09T05:17:57;3.33;;;2.53;;
3991;SDS011;2010;48.194;16.394;2022-09-09T05:20:28;5.73;;;2.47;;
3991;SDS011;2010;48.194;16.394;2022-09-09T05:22:58;3.70;;;2.23;;
3991;SDS011;2010;48.194;16.394;2022-09-09T05:25:30;2.90;;;2.50;;
3991;SDS011;2010;48.194;16.394;2022-09-09T05:27:58;3.40;;;2.30;;
3991;SDS011;2010;48.194;16.394;2022-09-09T05:30:29;5.20;;;2.73;;
3991;SDS011;2010;48.194;16.394;2022-09-09T05:32:59;4.80;;;2.50;;
3991;SDS011;2010;48.194;16.394;2022-09-09T05:35:32;3.30;;;2.40;;
3991;SDS011;2010;48.194;16.394;2022-09-09T05:38:00;4.40;;;2.10;;
3991;SDS011;2010;48.194;16.394;2022-09-09T05:40:30;2.80;;;2.30;;
3991;SDS011;2010;48.194;16.394;2022-09-09T05:42:59;3.33;;;2.53;;
3991;SDS011;2010;48.194;16.394;2022-09-09T05:45:30;3.53;;;2.20;;
3991;SDS011;2010;48.194;16.394;2022-09-09T05:47:59;5.43;;;2.93;;
3991;SDS011;2010;48.194;16.394;2022-09-09T05:50:32;7.10;;;3.43;;
3991;SDS011;2010;48.194;16.394;2022-09-09T05:53:00;8.40;;;3.20;;
3991;SDS011;2010;48.194;16.394;2022-09-09T05:55:32;8.40;;;3.03;;
3991;SDS011;2010;48.194;16.394;2022-09-09T05:58:11;6.37;;;2.63;;
3991;SDS011;2010;48.194;16.394;2022-09-09T06:00:39;3.13;;;2.43;;
3991;SDS011;2010;48.194;16.394;2022-09-09T06:03:09;10.37;;;6.10;;
3991;SDS011;2010;48.194;16.394;2022-09-09T06:05:40;6.00;;;4.30;;
3991;SDS011;2010;48.194;16.394;2022-09-09T06:08:08;5.77;;;3.30;;
3991;SDS011;2010;48.194;16.394;2022-09-09T06:10:37;7.43;;;3.90;;
3991;SDS011;2010;48.194;16.394;2022-09-09T06:13:07;4.47;;;2.73;;
3991;SDS011;2010;48.194;16.394;2022-09-09T06:15:39;2.93;;;2.60;;
3991;SDS011;2010;48.194;16.394;2022-09-09T06:18:10;5.13;;;3.50;;
3991;SDS011;2010;48.194;16.394;2022-09-09T06:20:39;4.03;;;2.67;;
3991;SDS011;2010;48.194;16.394;2022-09-09T06:23:11;4.33;;;2.60;;
3991;SDS011;2010;48.194;16.394;2022-09-09T06:25:42;3.40;;;3.10;;
3991;SDS011;2010;48.194;16.394;2022-09-09T06:28:12;4.17;;;3.03;;
3991;SDS011;2010;48.194;16.394;2022-09-09T06:30:41;3.90;;;3.60;;
3991;SDS011;2010;48.194;16.394;2022-09-09T06:33:10;2.83;;;2.50;;
3991;SDS011;2010;48.194;16.394;2022-09-09T06:35:40;4.67;;;2.87;;
3991;SDS011;2010;48.194;16.394;2022-09-09T06:38:10;4.73;;;3.20;;
3991;SDS011;2010;48.194;16.394;2022-09-09T06:40:39;8.03;;;3.40;;
3991;SDS011;2010;48.194;16.394;2022-09-09T06:43:11;5.67;;;2.93;;
3991;SDS011;2010;48.194;16.394;2022-09-09T06:45:55;4.90;;;4.50;;
3991;SDS011;2010;48.194;16.394;2022-09-09T06:48:25;4.00;;;3.60;;
3991;SDS011;2010;48.194;16.394;2022-09-09T06:51:04;2.87;;;2.67;;
3991;SDS011;2010;48.194;16.394;2022-09-09T06:53:36;3.53;;;2.50;;
3991;SDS011;2010;48.194;16.394;2022-09-09T06:56:21;3.40;;;3.10;;
3991;SDS011;2010;48.194;16.394;2022-09-09T06:58:56;6.83;;;2.73;;
3991;SDS011;2010;48.194;16.394;2022-09-09T07:01:35;4.30;;;2.00;;
3991;SDS011;2010;48.194;16.394;2022-09-09T07:04:22;4.27;;;2.30;;
3991;SDS011;2010;48.194;16.394;2022-09-09T07:06:56;7.83;;;2.40;;
3991;SDS011;2010;48.194;16.394;2022-09-09T07:09:26;3.37;;;2.83;;
3991;SDS011;2010;48.194;16.394;2022-09-09T07:11:58;5.00;;;2.00;;
3991;SDS011;2010;48.194;16.394;2022-09-09T07:14:30;2.00;;;1.90;;
3991;SDS011;2010;48.194;16.394;2022-09-09T07:17:02;2.43;;;2.23;;
3991;SDS011;2010;48.194;16.394;2022-09-09T07:19:36;3.87;;;2.93;;
3991;SDS011;2010;48.194;16.394;2022-09-09T07:22:09;3.60;;;3.23;;
3991;SDS011;2010;48.194;16.394;2022-09-09T07:24:38;3.07;;;2.80;;
3991;SDS011;2010;48.194;16.394;2022-09-09T07:27:08;2.07;;;1.80;;
3991;SDS011;2010;48.194;16.394;2022-09-09T07:29:42;2.30;;;2.00;;
3991;SDS011;2010;48.194;16.394;2022-09-09T07:32:13;2.13;;;1.93;;
3991;SDS011;2010;48.194;16.394;2022-09-09T07:34:43;2.83;;;1.70;;
3991;SDS011;2010;48.194;16.394;2022-09-09T07:37:14;3.70;;;2.10;;
3991;SDS011;2010;48.194;16.394;2022-09-09T07:39:45;4.73;;;2.20;;
3991;SDS011;2010;48.194;16.394;2022-09-09T07:42:17;2.07;;;1.93;;
3991;SDS011;2010;48.194;16.394;2022-09-09T07:44:46;5.27;;;1.93;;
3991;SDS011;2010;48.194;16.394;2022-09-09T07:47:16;2.00;;;1.80;;
3991;SDS011;2010;48.194;16.394;2022-09-09T07:49:48;2.50;;;2.30;;
3991;SDS011;2010;48.194;16.394;2022-09-09T07:52:24;2.00;;;1.90;;
3991;SDS011;2010;48.194;16.394;2022-09-09T07:55:00;8.93;;;2.20;;
3991;SDS011;2010;48.194;16.394;2022-09-09T07:57:30;3.03;;;2.73;;
3991;SDS011;2010;48.194;16.394;2022-09-09T08:00:00;2.73;;;2.40;;
3991;SDS011;2010;48.194;16.394;2022-09-09T08:02:38;3.70;;;3.40;;
3991;SDS011;2010;48.194;16.394;2022-09-09T08:05:10;3.13;;;2.93;;
3991;SDS011;2010;48.194;16.394;2022-09-09T08:07:43;7.60;;;3.00;;
3991;SDS011;2010;48.194;16.394;2022-09-09T08:10:13;2.63;;;2.43;;
3991;SDS011;2010;48.194;16.394;2022-09-09T08:12:45;2.10;;;2.00;;
3991;SDS011;2010;48.194;16.394;2022-09-09T08:15:35;2.90;;;1.90;;
3991;SDS011;2010;48.194;16.394;2022-09-09T08:18:09;1.80;;;1.70;;
3991;SDS011;2010;48.194;16.394;2022-09-09T08:20:40;4.50;;;2.13;;
3991;SDS011;2010;48.194;16.394;2022-09-09T08:23:11;2.90;;;2.70;;
3991;SDS011;2010;48.194;16.394;2022-09-09T08:25:39;3.93;;;3.50;;
3991;SDS011;2010;48.194;16.394;2022-09-09T08:28:10;3.63;;;2.83;;
3991;SDS011;2010;48.194;16.394;2022-09-09T08:30:42;3.57;;;3.27;;
3991;SDS011;2010;48.194;16.394;2022-09-09T08:33:10;3.63;;;2.83;;
3991;SDS011;2010;48.194;16.394;2022-09-09T08:35:38;4.60;;;2.40;;
3991;SDS011;2010;48.194;16.394;2022-09-09T08:38:07;2.30;;;1.70;;
3991;SDS011;2010;48.194;16.394;2022-09-09T08:40:39;2.87;;;2.40;;
3991;SDS011;2010;48.194;16.394;2022-09-09T08:43:12;3.87;;;2.30;;
3991;SDS011;2010;48.194;16.394;2022-09-09T08:45:44;4.33;;;2.20;;
3991;SDS011;2010;48.194;16.394;2022-09-09T08:48:24;1.77;;;1.67;;
3991;SDS011;2010;48.194;16.394;2022-09-09T08:51:06;1.90;;;1.70;;
3991;SDS011;2010;48.194;16.394;2022-09-09T08:53:39;2.90;;;1.83;;
3991;SDS011;2010;48.194;16.394;2022-09-09T08:56:14;2.57;;;2.07;;
3991;SDS011;2010;48.194;16.394;2022-09-09T08:58:48;3.37;;;1.77;;
3991;SDS011;2010;48.194;16.394;2022-09-09T09:01:31;4.20;;;1.50;;
3991;SDS011;2010;48.194;16.394;2022-09-09T09:04:29;2.60;;;2.40;;
3991;SDS011;2010;48.194;16.394;2022-09-09T09:07:22;1.70;;;1.60;;
3991;SDS011;2010;48.194;16.394;2022-09-09T09:10:02;1.90;;;1.70;;
3991;SDS011;2010;48.194;16.394;2022-09-09T09:12:58;3.30;;;1.60;;
3991;SDS011;2010;48.194;16.394;2022-09-09T09:15:30;2.40;;;1.60;;
3991;SDS011;2010;48.194;16.394;2022-09-09T09:18:05;3.87;;;2.00;;
3991;SDS011;2010;48.194;16.394;2022-09-09T09:20:47;2.27;;;1.77;;
3991;SDS011;2010;48.194;16.394;2022-09-09T09:23:23;4.43;;;2.23;;
3991;SDS011;2010;48.194;16.394;2022-09-09T09:25:58;3.20;;;1.60;;
3991;SDS011;2010;48.194;16.394;2022-09-09T09:28:32;2.90;;;1.77;;
3991;SDS011;2010;48.194;16.394;2022-09-09T09:31:11;2.70;;;1.30;;
3991;SDS011;2010;48.194;16.394;2022-09-09T09:33:47;4.10;;;1.53;;
3991;SDS011;2010;48.194;16.394;2022-09-09T09:36:19;3.20;;;1.20;;
3991;SDS011;2010;48.194;16.394;2022-09-09T09:38:54;3.13;;;1.33;;
3991;SDS011;2010;48.194;16.394;2022-09-09T09:41:44;1.90;;;1.40;;
3991;SDS011;2010;48.194;16.394;2022-09-09T09:44:23;3.20;;;1.23;;
3991;SDS011;2010;48.194;16.394;2022-09-09T09:47:05;4.10;;;1.33;;
3991;SDS011;2010;48.194;16.394;2022-09-09T09:49:37;2.93;;;1.10;;
3991;SDS011;2010;48.194;16.394;2022-09-09T09:52:12;4.63;;;1.20;;
3991;SDS011;2010;48.194;16.394;2022-09-09T09:54:43;4.97;;;1.40;;
3991;SDS011;2010;48.194;16.394;2022-09-09T09:57:13;4.00;;;1.80;;
3991;SDS011;2010;48.194;16.394;2022-09-09T09:59:47;3.57;;;1.27;;
3991;SDS011;2010;48.194;16.394;2022-09-09T10:02:22;1.60;;;1.43;;
3991;SDS011;2010;48.194;16.394;2022-09-09T10:05:04;4.37;;;1.53;;
3991;SDS011;2010;48.194;16.394;2022-09-09T10:07:36;3.43;;;1.90;;
3991;SDS011;2010;48.194;16.394;2022-09-09T10:10:13;1.97;;;1.87;;
3991;SDS011;2010;48.194;16.394;2022-09-09T10:12:48;1.93;;;1.83;;
3991;SDS011;2010;48.194;16.394;2022-09-09T10:15:29;2.83;;;1.40;;
3991;SDS011;2010;48.194;16.394;2022-09-09T10:18:05;2.80;;;1.77;;
3991;SDS011;2010;48.194;16.394;2022-09-09T10:20:43;4.63;;;2.50;;
3991;SDS011;2010;48.194;16.394;2022-09-09T10:23:18;1.73;;;1.63;;
3991;SDS011;2010;48.194;16.394;2022-09-09T10:26:11;6.93;;;3.00;;
3991;SDS011;2010;48.194;16.394;2022-09-09T10:28:52;3.10;;;1.67;;
3991;SDS011;2010;48.194;16.394;2022-09-09T10:31:29;2.40;;;1.70;;
3991;SDS011;2010;48.194;16.394;2022-09-09T10:34:06;2.47;;;2.03;;
3991;SDS011;2010;48.194;16.394;2022-09-09T10:36:44;1.93;;;1.83;;
3991;SDS011;2010;48.194;16.394;2022-09-09T10:39:18;3.10;;;2.30;;
3991;SDS011;2010;48.194;16.394;2022-09-09T10:41:59;2.47;;;1.90;;
3991;SDS011;2010;48.194;16.394;2022-09-09T10:44:34;2.23;;;1.80;;
3991;SDS011;2010;48.194;16.394;2022-09-09T10:47:16;3.60;;;1.87;;
3991;SDS011;2010;48.194;16.394;2022-09-09T10:50:03;1.83;;;1.40;;
3991;SDS011;2010;48.194;16.394;2022-09-09T10:52:40;4.53;;;2.00;;
3991;SDS011;2010;48.194;16.394;2022-09-09T10:55:15;4.10;;;1.83;;
3991;SDS011;2010;48.194;16.394;2022-09-09T10:57:46;3.03;;;1.13;;
3991;SDS011;2010;48.194;16.394;2022-09-09T11:00:17;2.93;;;1.50;;
3991;SDS011;2010;48.194;16.394;2022-09-09T11:02:52;1.33;;;1.00;;
3991;SDS011;2010;48.194;16.394;2022-09-09T11:05:25;5.30;;;2.03;;
3991;SDS011;2010;48.194;16.394;2022-09-09T11:07:58;7.30;;;2.30;;
3991;SDS011;2010;48.194;16.394;2022-09-09T11:10:29;4.87;;;2.20;;
3991;SDS011;2010;48.194;16.394;2022-09-09T11:13:04;5.33;;;2.40;;
3991;SDS011;2010;48.194;16.394;2022-09-09T11:15:35;5.17;;;3.10;;
3991;SDS011;2010;48.194;16.394;2022-09-09T11:18:10;2.73;;;2.30;;
3991;SDS011;2010;48.194;16.394;2022-09-09T11:20:42;2.33;;;2.07;;
3991;SDS011;2010;48.194;16.394;2022-09-09T11:23:12;3.80;;;1.53;;
3991;SDS011;2010;48.194;16.394;2022-09-09T11:25:44;1.40;;;1.30;;
3991;SDS011;2010;48.194;16.394;2022-09-09T11:28:26;2.23;;;1.50;;
3991;SDS011;2010;48.194;16.394;2022-09-09T11:31:04;1.93;;;1.00;;
3991;SDS011;2010;48.194;16.394;2022-09-09T11:33:49;3.43;;;1.50;;
3991;SDS011;2010;48.194;16.394;2022-09-09T11:36:31;3.57;;;2.10;;
3991;SDS011;2010;48.194;16.394;2022-09-09T11:39:10;2.70;;;2.50;;
3991;SDS011;2010;48.194;16.394;2022-09-09T11:41:52;1.60;;;1.50;;
3991;SDS011;2010;48.194;16.394;2022-09-09T11:44:24;1.03;;;1.03;;
3991;SDS011;2010;48.194;16.394;2022-09-09T11:46:56;3.17;;;1.07;;
3991;SDS011;2010;48.194;16.394;2022-09-09T11:49:28;1.10;;;1.00;;
3991;SDS011;2010;48.194;16.394;2022-09-09T11:51:57;1.07;;;1.00;;
3991;SDS011;2010;48.194;16.394;2022-09-09T11:54:29;1.87;;;1.30;;
3991;SDS011;2010;48.194;16.394;2022-09-09T11:56:58;1.10;;;0.80;;
3991;SDS011;2010;48.194;16.394;2022-09-09T11:59:29;3.63;;;1.07;;
3991;SDS011;2010;48.194;16.394;2022-09-09T12:01:59;2.60;;;1.30;;
3991;SDS011;2010;48.194;16.394;2022-09-09T12:04:31;1.13;;;0.93;;
3991;SDS011;2010;48.194;16.394;2022-09-09T12:07:18;6.37;;;1.20;;
3991;SDS011;2010;48.194;16.394;2022-09-09T12:09:55;2.53;;;1.30;;
3991;SDS011;2010;48.194;16.394;2022-09-09T12:12:27;2.50;;;1.00;;
3991;SDS011;2010;48.194;16.394;2022-09-09T12:14:59;5.63;;;1.20;;
3991;SDS011;2010;48.194;16.394;2022-09-09T12:17:31;3.63;;;1.20;;
3991;SDS011;2010;48.194;16.394;2022-09-09T12:20:02;5.50;;;2.27;;
3991;SDS011;2010;48.194;16.394;2022-09-09T12:22:37;6.10;;;2.07;;
3991;SDS011;2010;48.194;16.394;2022-09-09T12:25:16;2.40;;;2.10;;
3991;SDS011;2010;48.194;16.394;2022-09-09T12:27:55;2.17;;;1.00;;
3991;SDS011;2010;48.194;16.394;2022-09-09T12:30:34;1.10;;;1.00;;
3991;SDS011;2010;48.194;16.394;2022-09-09T12:33:09;3.30;;;1.17;;
3991;SDS011;2010;48.194;16.394;2022-09-09T12:35:44;2.20;;;0.90;;
3991;SDS011;2010;48.194;16.394;2022-09-09T12:38:14;6.03;;;1.97;;
3991;SDS011;2010;48.194;16.394;2022-09-09T12:40:53;9.73;;;2.50;;
3991;SDS011;2010;48.194;16.394;2022-09-09T12:43:25;7.30;;;2.50;;
3991;SDS011;2010;48.194;16.394;2022-09-09T12:45:55;5.87;;;1.67;;
3991;SDS011;2010;48.194;16.394;2022-09-09T12:48:29;7.13;;;1.90;;
3991;SDS011;2010;48.194;16.394;2022-09-09T12:51:03;5.30;;;2.53;;
3991;SDS011;2010;48.194;16.394;2022-09-09T12:53:35;1.83;;;1.73;;
3991;SDS011;2010;48.194;16.394;2022-09-09T12:56:08;2.10;;;1.00;;
3991;SDS011;2010;48.194;16.394;2022-09-09T12:58:38;1.33;;;1.30;;
3991;SDS011;2010;48.194;16.394;2022-09-09T13:01:17;1.77;;;1.30;;
3991;SDS011;2010;48.194;16.394;2022-09-09T13:03:50;3.00;;;1.40;;
3991;SDS011;2010;48.194;16.394;2022-09-09T13:06:22;1.80;;;1.40;;
3991;SDS011;2010;48.194;16.394;2022-09-09T13:08:57;1.47;;;1.10;;
3991;SDS011;2010;48.194;16.394;2022-09-09T13:11:28;1.30;;;1.20;;
3991;SDS011;2010;48.194;16.394;2022-09-09T13:14:00;1.47;;;1.37;;
3991;SDS011;2010;48.194;16.394;2022-09-09T13:16:29;2.00;;;1.20;;
3991;SDS011;2010;48.194;16.394;2022-09-09T13:19:02;3.00;;;1.07;;
3991;SDS011;2010;48.194;16.394;2022-09-09T13:21:37;1.43;;;1.10;;
3991;SDS011;2010;48.194;16.394;2022-09-09T13:24:22;15.17;;;1.40;;
3991;SDS011;2010;48.194;16.394;2022-09-09T13:26:55;1.63;;;0.90;;
3991;SDS011;2010;48.194;16.394;2022-09-09T13:29:26;1.23;;;1.13;;
3991;SDS011;2010;48.194;16.394;2022-09-09T13:32:02;1.33;;;0.80;;
3991;SDS011;2010;48.194;16.394;2022-09-09T13:34:33;2.17;;;0.90;;
3991;SDS011;2010;48.194;16.394;2022-09-09T13:37:05;1.43;;;0.87;;
3991;SDS011;2010;48.194;16.394;2022-09-09T13:39:36;2.00;;;0.90;;
3991;SDS011;2010;48.194;16.394;2022-09-09T13:42:18;2.43;;;1.03;;
3991;SDS011;2010;48.194;16.394;2022-09-09T13:44:53;0.80;;;0.80;;
3991;SDS011;2010;48.194;16.394;2022-09-09T13:47:27;1.10;;;1.00;;
3991;SDS011;2010;48.194;16.394;2022-09-09T13:49:57;1.13;;;1.03;;
3991;SDS011;2010;48.194;16.394;2022-09-09T13:52:27;2.00;;;0.70;;
3991;SDS011;2010;48.194;16.394;2022-09-09T13:54:58;1.13;;;1.03;;
3991;SDS011;2010;48.194;16.394;2022-09-09T13:57:26;1.80;;;0.93;;
3991;SDS011;2010;48.194;16.394;2022-09-09T13:59:55;5.27;;;0.90;;
3991;SDS011;2010;48.194;16.394;2022-09-09T14:02:31;4.70;;;1.47;;
3991;SDS011;2010;48.194;16.394;2022-09-09T14:05:01;3.17;;;0.93;;
3991;SDS011;2010;48.194;16.394;2022-09-09T14:07:31;3.43;;;1.20;;
3991;SDS011;2010;48.194;16.394;2022-09-09T14:10:00;2.40;;;0.90;;
3991;SDS011;2010;48.194;16.394;2022-09-09T14:12:28;1.07;;;0.70;;
3991;SDS011;2010;48.194;16.394;2022-09-09T14:14:57;2.37;;;1.10;;
3991;SDS011;2010;48.194;16.394;2022-09-09T14:17:26;2.60;;;0.93;;
3991;SDS011;2010;48.194;16.394;2022-09-09T14:19:58;1.30;;;1.20;;
3991;SDS011;2010;48.194;16.394;2022-09-09T14:22:26;1.23;;;0.97;;
3991;SDS011;2010;48.194;16.394;2022-09-09T14:24:56;1.33;;;1.23;;
3991;SDS011;2010;48.194;16.394;2022-09-09T14:27:25;8.10;;;0.83;;
3991;SDS011;2010;48.194;16.394;2022-09-09T14:29:54;3.13;;;1.10;;
3991;SDS011;2010;48.194;16.394;2022-09-09T14:32:22;0.97;;;0.90;;
3991;SDS011;2010;48.194;16.394;2022-09-09T14:34:51;2.30;;;1.10;;
3991;SDS011;2010;48.194;16.394;2022-09-09T14:37:19;3.80;;;1.07;;
3991;SDS011;2010;48.194;16.394;2022-09-09T14:39:48;5.07;;;1.70;;
3991;SDS011;2010;48.194;16.394;2022-09-09T14:42:19;1.43;;;1.30;;
3991;SDS011;2010;48.194;16.394;2022-09-09T14:44:49;1.50;;;1.20;;
3991;SDS011;2010;48.194;16.394;2022-09-09T14:47:18;2.77;;;1.47;;
3991;SDS011;2010;48.194;16.394;2022-09-09T14:49:47;2.20;;;1.40;;
3991;SDS011;2010;48.194;16.394;2022-09-09T14:52:17;3.90;;;1.93;;
3991;SDS011;2010;48.194;16.394;2022-09-09T14:54:46;1.80;;;1.53;;
3991;SDS011;2010;48.194;16.394;2022-09-09T14:57:15;2.93;;;1.60;;
3991;SDS011;2010;48.194;16.394;2022-09-09T14:59:45;1.60;;;1.10;;
3991;SDS011;2010;48.194;16.394;2022-09-09T15:02:14;2.10;;;1.63;;
3991;SDS011;2010;48.194;16.394;2022-09-09T15:04:43;5.90;;;2.27;;
3991;SDS011;2010;48.194;16.394;2022-09-09T15:07:13;3.50;;;1.43;;
3991;SDS011;2010;48.194;16.394;2022-09-09T15:09:42;3.67;;;1.43;;
3991;SDS011;2010;48.194;16.394;2022-09-09T15:12:12;1.53;;;1.43;;
3991;SDS011;2010;48.194;16.394;2022-09-09T15:14:42;3.93;;;1.50;;
3991;SDS011;2010;48.194;16.394;2022-09-09T15:17:13;2.43;;;1.70;;
3991;SDS011;2010;48.194;16.394;2022-09-09T15:19:42;2.40;;;1.73;;
3991;SDS011;2010;48.194;16.394;2022-09-09T15:22:11;4.60;;;1.50;;
3991;SDS011;2010;48.194;16.394;2022-09-09T15:24:39;1.60;;;1.47;;
3991;SDS011;2010;48.194;16.394;2022-09-09T15:27:11;1.67;;;1.57;;
3991;SDS011;2010;48.194;16.394;2022-09-09T15:29:42;4.20;;;1.73;;
3991;SDS011;2010;48.194;16.394;2022-09-09T15:32:21;1.80;;;1.67;;
3991;SDS011;2010;48.194;16.394;2022-09-09T15:34:50;3.10;;;2.30;;
3991;SDS011;2010;48.194;16.394;2022-09-09T15:37:19;1.57;;;1.47;;
3991;SDS011;2010;48.194;16.394;2022-09-09T15:39:48;1.97;;;1.77;;
3991;SDS011;2010;48.194;16.394;2022-09-09T15:42:19;1.70;;;1.60;;
3991;SDS011;2010;48.194;16.394;2022-09-09T15:44:48;1.67;;;1.57;;
3991;SDS011;2010;48.194;16.394;2022-09-09T15:47:17;2.70;;;1.67;;